Willcox, Arizona
Current Conditions -  °F | °C
As of 9:51 PM on Thursday 30 Oct 2014 (Local Time) from KSAD Reporting Station
Clear Clear  
Wind Chill: 20°   Ceiling: Unl
Heat Index: 20°   Visibility: 10mi
Dew Point:   Wind: 9mph
Humidity: 26%   Direction: 120°ESE
Pressure: 30.1"   Gusts: NA
Location:  32.25°N, 109.84°W
Report Text: KSAD 310451Z AUTO 12008KT 10SM CLR 20/00 A3010 RMK AO2 SLP153 T02000000
Loading
Personal Weather Stations






























Interactive Weather Map
Tropical Storm Tracking
New forecast layout! Learn more

10-Day Weather Forecast

Advertisements
Track Severe Weather on mobile